Time;durP1;ratioP1;P1;durP2;ratioP2;P2;SDS_P1;SDS_P2;PMS_P1;PMS_P2;Temp;Humidity;BMP_temperature;BMP_pressure;BME280_temperature;BME280_humidity;BME280_pressure;Samples;Min_cycle;Max_cycle;Signal;HPM_P1;HPM_P2
2022/10/18 00:00:18;;;;;;;27.60;15.70;;;14.20;99.90;;;;;;4789314;30;20254;-82
2022/10/18 00:02:46;;;;;;;29.03;15.90;;;14.10;99.90;;;;;;4772977;30;20216;-83
2022/10/18 00:05:13;;;;;;;26.03;15.33;;;14.10;99.90;;;;;;4773004;30;20227;-82
2022/10/18 00:07:40;;;;;;;24.50;14.87;;;14.10;99.90;;;;;;4773419;30;20212;-82
2022/10/18 00:10:13;;;;;;;25.27;14.43;;;14.10;99.90;;;;;;4772639;30;20301;-82
2022/10/18 00:12:41;;;;;;;25.57;14.87;;;14.10;99.90;;;;;;4788833;30;20224;-82
2022/10/18 00:15:10;;;;;;;25.13;14.10;;;14.10;99.90;;;;;;4789089;29;20197;-82
2022/10/18 00:17:38;;;;;;;24.70;14.40;;;14.10;99.90;;;;;;4772499;30;20212;-82
2022/10/18 00:20:05;;;;;;;26.80;15.23;;;14.10;99.90;;;;;;4772703;30;20203;-83
2022/10/18 00:22:37;;;;;;;26.50;14.10;;;14.10;99.90;;;;;;4772700;30;20261;-83
2022/10/18 00:25:05;;;;;;;29.53;14.80;;;14.00;99.90;;;;;;4772498;30;20590;-82
2022/10/18 00:27:33;;;;;;;27.77;14.77;;;14.00;99.90;;;;;;4772728;30;20268;-83
2022/10/18 00:30:00;;;;;;;23.07;13.93;;;14.00;99.90;;;;;;4772371;30;20199;-83
2022/10/18 00:32:27;;;;;;;24.50;14.03;;;14.00;99.90;;;;;;4788552;30;20231;-83
2022/10/18 00:34:54;;;;;;;26.20;13.60;;;14.00;99.90;;;;;;4772333;30;20306;-81
2022/10/18 00:37:21;;;;;;;26.43;13.97;;;14.00;99.90;;;;;;4757653;30;20227;-83
2022/10/18 00:39:48;;;;;;;24.77;14.13;;;14.00;99.90;;;;;;4772138;30;20230;-83
2022/10/18 00:42:17;;;;;;;25.67;13.37;;;14.00;99.90;;;;;;4757576;30;20204;-82
2022/10/18 00:44:44;;;;;;;24.83;12.67;;;14.00;99.90;;;;;;4772152;30;20581;-82
2022/10/18 00:47:16;;;;;;;26.17;12.93;;;14.00;99.90;;;;;;4788735;30;20238;-83
2022/10/18 00:49:54;;;;;;;19.83;11.77;;;14.00;99.90;;;;;;4772391;30;20681;-83
2022/10/18 00:52:26;;;;;;;21.27;12.27;;;14.00;99.90;;;;;;4772306;30;20228;-83
2022/10/18 00:54:55;;;;;;;20.27;11.60;;;14.00;99.90;;;;;;4772242;30;20737;-80
2022/10/18 00:57:23;;;;;;;22.40;11.57;;;14.00;99.90;;;;;;4771942;30;20639;-81
2022/10/18 00:59:52;;;;;;;21.27;11.37;;;14.00;99.90;;;;;;4772017;30;20210;-82
2022/10/18 01:02:19;;;;;;;20.43;11.03;;;14.00;99.90;;;;;;4772087;30;20215;-81
2022/10/18 01:04:47;;;;;;;18.20;11.47;;;14.00;99.90;;;;;;4787870;30;20207;-82
2022/10/18 01:07:32;;;;;;;18.77;11.30;;;14.00;99.90;;;;;;4772009;30;20248;-82
2022/10/18 01:10:24;;;;;;;17.73;11.17;;;14.00;99.90;;;;;;4772048;30;20224;-82
2022/10/18 01:12:54;;;;;;;22.90;12.33;;;14.00;99.90;;;;;;4771711;30;20234;-82
2022/10/18 01:15:53;;;;;;;21.73;11.23;;;14.00;99.90;;;;;;4772050;30;20653;-81
2022/10/18 01:18:24;;;;;;;22.37;11.77;;;13.90;99.90;;;;;;4771928;30;20258;-81
2022/10/18 01:21:02;;;;;;;21.87;12.63;;;13.90;99.90;;;;;;4771876;30;20259;-82
2022/10/18 01:23:51;;;;;;;21.43;12.13;;;13.90;99.90;;;;;;4771873;30;20604;-82
2022/10/18 01:26:47;;;;;;;21.00;12.00;;;13.90;99.90;;;;;;4771786;30;20609;-82
2022/10/18 01:29:30;;;;;;;19.60;11.30;;;13.80;99.90;;;;;;4771877;30;20212;-82
2022/10/18 01:32:03;;;;;;;19.80;11.13;;;13.80;99.90;;;;;;4787905;30;20218;-79
2022/10/18 01:34:44;;;;;;;19.83;11.20;;;13.80;99.90;;;;;;4758222;30;20358;-82
2022/10/18 01:37:17;;;;;;;23.10;11.53;;;13.80;99.90;;;;;;4771780;30;20281;-81
2022/10/18 01:39:45;;;;;;;19.23;11.30;;;13.70;99.90;;;;;;4771851;30;20216;-82
2022/10/18 01:42:19;;;;;;;20.37;10.97;;;13.70;99.90;;;;;;4771871;30;20211;-81
2022/10/18 01:44:47;;;;;;;21.47;10.80;;;13.70;99.90;;;;;;4787719;29;20265;-81
2022/10/18 01:47:15;;;;;;;17.67;10.40;;;13.70;99.90;;;;;;4771776;30;20203;-81
2022/10/18 01:49:42;;;;;;;18.87;10.93;;;13.70;99.90;;;;;;4771552;30;20222;-81
2022/10/18 01:52:13;;;;;;;19.17;10.77;;;13.70;99.90;;;;;;4773034;29;20200;-79
2022/10/18 01:54:44;;;;;;;18.23;10.07;;;13.70;99.90;;;;;;4774970;30;20232;-82
2022/10/18 01:57:27;;;;;;;17.47;9.50;;;13.60;99.90;;;;;;4791500;29;20211;-82
2022/10/18 02:00:09;;;;;;;16.53;9.80;;;13.60;99.90;;;;;;4775141;30;20577;-82
2022/10/18 02:02:42;;;;;;;19.33;9.90;;;13.60;99.90;;;;;;4775169;30;20207;-82
2022/10/18 02:05:15;;;;;;;19.17;9.93;;;13.60;99.90;;;;;;4774552;29;20232;-82
2022/10/18 02:08:20;;;;;;;17.53;9.90;;;13.50;99.90;;;;;;4775142;30;20274;-82
2022/10/18 02:11:01;;;;;;;15.93;9.47;;;13.60;99.90;;;;;;4774549;30;20204;-83
2022/10/18 02:13:46;;;;;;;16.07;9.53;;;13.60;99.90;;;;;;4790694;29;20239;-82
2022/10/18 02:16:18;;;;;;;15.23;8.70;;;13.50;99.90;;;;;;4774693;30;20261;-83
2022/10/18 02:18:57;;;;;;;17.40;9.80;;;13.50;99.90;;;;;;4790864;30;20234;-82
2022/10/18 02:21:26;;;;;;;17.97;9.60;;;13.50;99.90;;;;;;4774672;30;20208;-82
2022/10/18 02:23:54;;;;;;;16.50;9.00;;;13.40;99.90;;;;;;4774523;29;20214;-81
2022/10/18 02:26:21;;;;;;;17.03;9.43;;;13.40;99.90;;;;;;4790671;30;20205;-83
2022/10/18 02:28:48;;;;;;;17.83;8.60;;;13.50;99.90;;;;;;4774725;30;20654;-84
2022/10/18 02:31:32;;;;;;;15.23;8.30;;;13.50;99.90;;;;;;4774671;30;20203;-84
2022/10/18 02:34:38;;;;;;;13.03;8.07;;;13.40;99.90;;;;;;4759489;30;20702;-83
2022/10/18 02:37:05;;;;;;;15.90;8.50;;;13.50;99.90;;;;;;4774378;30;20205;-83
2022/10/18 02:39:35;;;;;;;12.60;8.17;;;13.50;99.90;;;;;;4759650;30;20773;-83
2022/10/18 02:42:08;;;;;;;13.53;7.93;;;13.50;99.90;;;;;;4774325;30;20207;-83
2022/10/18 02:44:36;;;;;;;12.47;8.00;;;13.50;99.90;;;;;;4774087;30;20204;-84
2022/10/18 02:47:05;;;;;;;12.23;8.00;;;13.50;99.90;;;;;;4759372;29;20598;-84
2022/10/18 02:49:32;;;;;;;12.03;7.90;;;13.40;99.90;;;;;;4759360;30;20202;-83
2022/10/18 02:51:59;;;;;;;14.00;7.93;;;13.50;99.90;;;;;;4774263;30;20230;-84
2022/10/18 02:54:26;;;;;;;15.97;8.07;;;13.40;99.90;;;;;;4773931;30;20687;-85
2022/10/18 02:56:53;;;;;;;15.30;8.07;;;13.40;99.90;;;;;;4759383;30;20223;-85
2022/10/18 02:59:20;;;;;;;13.57;7.70;;;13.40;99.90;;;;;;4759388;30;20274;-85
2022/10/18 03:01:47;;;;;;;14.67;7.67;;;13.40;99.90;;;;;;4773997;30;20204;-85
2022/10/18 03:04:13;;;;;;;13.57;8.07;;;13.40;99.90;;;;;;4773749;29;20240;-84
2022/10/18 03:06:41;;;;;;;14.90;8.03;;;13.40;99.90;;;;;;4773801;30;20307;-84
2022/10/18 03:09:09;;;;;;;11.97;7.13;;;13.40;99.90;;;;;;4773846;30;20227;-83
2022/10/18 03:11:35;;;;;;;11.23;7.40;;;13.40;99.90;;;;;;4789979;29;20686;-82
2022/10/18 03:14:05;;;;;;;14.27;7.70;;;13.40;99.90;;;;;;4773645;30;20232;-83
2022/10/18 03:16:33;;;;;;;11.97;7.67;;;13.40;99.90;;;;;;4758688;30;20215;-82
2022/10/18 03:18:59;;;;;;;13.00;7.60;;;13.40;99.90;;;;;;4773876;29;20221;-83
2022/10/18 03:21:26;;;;;;;11.30;7.57;;;13.40;99.90;;;;;;4773563;30;20730;-82
2022/10/18 03:23:53;;;;;;;13.43;7.23;;;13.40;99.90;;;;;;4789564;29;20230;-83
2022/10/18 03:26:21;;;;;;;13.40;7.47;;;13.40;99.90;;;;;;4789728;30;20218;-83
2022/10/18 03:28:47;;;;;;;13.43;7.77;;;13.30;99.90;;;;;;4773579;30;20212;-83
2022/10/18 03:31:14;;;;;;;13.70;7.67;;;13.30;99.90;;;;;;4773686;30;20570;-83
2022/10/18 03:33:41;;;;;;;11.13;7.47;;;13.30;99.90;;;;;;4773393;29;20224;-82
2022/10/18 03:36:08;;;;;;;14.20;7.27;;;13.40;99.90;;;;;;4773232;30;20254;-83
2022/10/18 03:38:35;;;;;;;11.80;7.80;;;13.30;99.90;;;;;;4789539;30;20273;-83
2022/10/18 03:41:02;;;;;;;12.07;7.67;;;13.30;99.90;;;;;;4773727;30;20207;-84
2022/10/18 03:43:30;;;;;;;12.20;7.53;;;13.30;99.90;;;;;;4773273;30;20299;-83
2022/10/18 03:45:57;;;;;;;13.17;7.77;;;13.30;99.90;;;;;;4789408;30;20201;-83
2022/10/18 03:48:24;;;;;;;12.70;7.70;;;13.20;99.90;;;;;;4789516;30;20193;-83
2022/10/18 03:50:51;;;;;;;12.57;7.47;;;13.30;99.90;;;;;;4773237;30;20204;-83
2022/10/18 03:53:18;;;;;;;12.37;7.80;;;13.20;99.90;;;;;;4772983;30;20236;-83
2022/10/18 03:55:53;;;;;;;11.17;7.30;;;13.20;99.90;;;;;;4772993;30;20194;-83
2022/10/18 03:58:20;;;;;;;14.13;7.50;;;13.20;99.90;;;;;;4789078;29;20219;-85
2022/10/18 04:00:52;;;;;;;13.93;7.30;;;13.20;99.90;;;;;;4773101;30;20296;-83
2022/10/18 04:03:20;;;;;;;11.77;6.73;;;13.10;99.90;;;;;;4773380;30;20686;-82
2022/10/18 04:05:48;;;;;;;13.67;7.10;;;13.20;99.90;;;;;;4772687;30;20207;-83
2022/10/18 04:08:16;;;;;;;13.33;7.50;;;13.20;99.90;;;;;;4772905;30;20201;-82
2022/10/18 04:10:43;;;;;;;15.57;7.77;;;13.10;99.90;;;;;;4772601;30;20220;-83
2022/10/18 04:13:10;;;;;;;12.20;7.60;;;13.10;99.90;;;;;;4773144;30;20220;-83
2022/10/18 04:15:37;;;;;;;12.80;7.33;;;13.10;99.90;;;;;;4787946;29;20230;-84
2022/10/18 04:18:04;;;;;;;12.33;7.03;;;13.00;99.90;;;;;;4772736;30;20559;-82
2022/10/18 04:20:31;;;;;;;12.63;7.13;;;13.10;99.90;;;;;;4773017;30;20572;-83
2022/10/18 04:22:58;;;;;;;11.57;6.80;;;13.00;99.90;;;;;;4788695;29;20212;-83
2022/10/18 04:25:25;;;;;;;11.63;7.17;;;13.00;99.90;;;;;;4788583;30;20286;-84
2022/10/18 04:27:52;;;;;;;15.47;7.57;;;13.10;99.90;;;;;;4772517;30;20215;-83
2022/10/18 04:30:19;;;;;;;12.60;7.57;;;13.00;99.90;;;;;;4772585;30;20208;-83
2022/10/18 04:32:45;;;;;;;11.27;7.33;;;13.00;99.90;;;;;;4772388;30;20203;-84
2022/10/18 04:35:13;;;;;;;12.67;7.00;;;13.10;99.90;;;;;;4788160;30;20204;-83
2022/10/18 04:37:40;;;;;;;14.33;7.43;;;13.10;99.90;;;;;;4788480;29;20265;-83
2022/10/18 04:40:07;;;;;;;12.03;6.90;;;13.10;99.90;;;;;;4772442;30;20224;-83
2022/10/18 04:42:34;;;;;;;14.10;7.73;;;13.10;99.90;;;;;;4772691;30;20280;-82
2022/10/18 04:45:01;;;;;;;15.13;6.97;;;13.10;99.90;;;;;;4772399;30;20682;-82
2022/10/18 04:47:28;;;;;;;13.03;7.40;;;13.10;99.90;;;;;;4772204;30;20208;-83
2022/10/18 04:49:55;;;;;;;12.47;7.27;;;13.00;99.90;;;;;;4788203;29;20207;-83
2022/10/18 04:52:22;;;;;;;13.20;7.13;;;13.10;99.90;;;;;;4772318;29;20208;-86
2022/10/18 04:54:49;;;;;;;12.60;7.00;;;13.10;99.90;;;;;;4772092;30;20288;-82
2022/10/18 04:57:16;;;;;;;12.77;7.70;;;13.10;99.90;;;;;;4771749;30;20208;-84
2022/10/18 04:59:43;;;;;;;11.60;7.10;;;13.10;99.90;;;;;;4757568;30;20630;-83
2022/10/18 05:02:10;;;;;;;11.50;7.17;;;13.10;99.90;;;;;;4772147;30;20203;-83
2022/10/18 05:04:37;;;;;;;13.73;6.70;;;13.10;99.90;;;;;;4788575;30;20200;-83
2022/10/18 05:07:05;;;;;;;12.33;7.00;;;13.10;99.90;;;;;;4788074;30;20699;-83
2022/10/18 05:09:32;;;;;;;10.97;6.83;;;13.10;99.90;;;;;;4788116;29;20202;-83
2022/10/18 05:11:59;;;;;;;16.53;7.27;;;13.20;99.90;;;;;;4772097;30;20257;-84
2022/10/18 05:14:26;;;;;;;16.23;7.70;;;13.20;99.90;;;;;;4771961;30;20285;-82
2022/10/18 05:16:53;;;;;;;13.90;7.27;;;13.20;99.90;;;;;;4787873;30;20188;-82
2022/10/18 05:19:20;;;;;;;11.30;6.83;;;13.20;99.90;;;;;;4787582;30;20696;-81
2022/10/18 05:21:47;;;;;;;22.07;8.53;;;13.20;99.90;;;;;;4771873;30;20586;-82
2022/10/18 05:24:14;;;;;;;11.70;6.97;;;13.20;99.90;;;;;;4768971;30;20298;-84
2022/10/18 05:26:40;;;;;;;11.87;7.07;;;13.20;99.90;;;;;;4759185;30;20550;-81
2022/10/18 05:29:07;;;;;;;13.83;7.70;;;13.20;99.90;;;;;;4760882;30;20212;-84
2022/10/18 05:31:34;;;;;;;12.67;7.30;;;13.20;99.90;;;;;;4774801;30;20207;-84
2022/10/18 05:34:02;;;;;;;11.43;7.00;;;13.30;99.90;;;;;;4775460;30;20232;-84
2022/10/18 05:36:29;;;;;;;17.37;7.87;;;13.30;99.90;;;;;;4775492;30;20242;-82
2022/10/18 05:38:56;;;;;;;12.73;7.17;;;13.30;99.90;;;;;;4791539;30;20248;-83
2022/10/18 05:41:29;;;;;;;19.47;7.83;;;13.30;99.90;;;;;;4775374;30;20271;-83
2022/10/18 05:43:56;;;;;;;13.47;7.43;;;13.40;99.90;;;;;;4790654;30;20285;-85
2022/10/18 05:46:23;;;;;;;10.83;7.27;;;13.40;99.90;;;;;;4774103;30;20696;-81
2022/10/18 05:48:51;;;;;;;14.27;7.93;;;13.50;99.90;;;;;;4775342;30;20197;-85
2022/10/18 05:51:18;;;;;;;12.33;6.93;;;13.50;99.90;;;;;;4791940;29;20202;-83
2022/10/18 05:53:45;;;;;;;11.37;6.80;;;13.50;99.90;;;;;;4774810;30;20254;-82
2022/10/18 05:56:13;;;;;;;12.93;7.10;;;13.50;99.90;;;;;;4790942;30;20226;-82
2022/10/18 05:58:41;;;;;;;14.97;7.20;;;13.60;99.90;;;;;;4774448;30;20252;-80
2022/10/18 06:01:09;;;;;;;17.97;7.20;;;13.70;99.90;;;;;;4774713;29;20203;-80
2022/10/18 06:03:36;;;;;;;12.30;7.30;;;13.70;99.90;;;;;;4790788;30;20192;-79
2022/10/18 06:06:08;;;;;;;12.47;7.33;;;13.80;99.90;;;;;;4774755;30;20269;-77
2022/10/18 06:08:36;;;;;;;14.03;7.50;;;13.80;99.90;;;;;;4774773;30;20232;-83
2022/10/18 06:11:15;;;;;;;14.80;7.80;;;13.80;99.90;;;;;;4774834;30;20231;-78
2022/10/18 06:13:50;;;;;;;17.30;7.87;;;13.90;99.90;;;;;;4773641;30;20227;-86
2022/10/18 06:16:21;;;;;;;12.37;6.90;;;13.90;99.90;;;;;;4760429;30;20667;-81
2022/10/18 06:18:54;;;;;;;11.97;7.33;;;14.00;99.90;;;;;;4790776;30;20200;-78
2022/10/18 06:21:23;;;;;;;15.00;7.67;;;14.20;99.90;;;;;;4774648;30;20742;-80
2022/10/18 06:23:51;;;;;;;10.57;7.20;;;14.30;99.90;;;;;;4774284;29;20219;-81
2022/10/18 06:26:18;;;;;;;12.03;7.53;;;14.30;99.90;;;;;;4774443;29;20210;-84
2022/10/18 06:28:45;;;;;;;16.80;7.70;;;14.30;99.90;;;;;;4774538;30;20204;-83
2022/10/18 06:31:13;;;;;;;13.13;7.13;;;14.50;99.90;;;;;;4788840;30;20200;-85
2022/10/18 06:33:40;;;;;;;17.83;7.53;;;14.50;99.90;;;;;;4773595;30;20227;-83
2022/10/18 06:36:12;;;;;;;15.43;7.03;;;14.60;99.90;;;;;;4789855;29;20211;-80
2022/10/18 06:38:39;;;;;;;12.97;7.30;;;14.70;99.90;;;;;;4773661;30;20206;-77
2022/10/18 06:41:07;;;;;;;14.27;7.10;;;14.70;99.90;;;;;;4770770;30;20204;-82
2022/10/18 06:43:34;;;;;;;16.10;7.80;;;14.90;99.90;;;;;;4774276;30;20212;-76
2022/10/18 06:46:06;;;;;;;21.70;7.90;;;14.90;99.90;;;;;;4789062;30;20216;-81
2022/10/18 06:48:35;;;;;;;25.00;8.27;;;15.00;99.90;;;;;;4774293;30;20310;-80
2022/10/18 06:51:04;;;;;;;14.83;7.63;;;15.00;99.90;;;;;;4773595;30;20196;-80
2022/10/18 06:53:36;;;;;;;13.53;7.33;;;14.90;99.90;;;;;;4772395;29;20260;-86
2022/10/18 06:56:14;;;;;;;14.33;7.00;;;15.00;99.90;;;;;;4775406;30;20200;-81
2022/10/18 06:58:42;;;;;;;12.27;6.97;;;15.10;99.90;;;;;;4774070;30;20208;-82
2022/10/18 07:01:11;;;;;;;16.20;7.50;;;15.20;99.90;;;;;;4786236;30;20258;-80
2022/10/18 07:03:39;;;;;;;12.77;7.40;;;15.10;99.90;;;;;;4754144;30;20671;-83
2022/10/18 07:06:08;;;;;;;13.63;7.10;;;15.20;99.90;;;;;;4782279;30;20227;-84
2022/10/18 07:08:42;;;;;;;17.17;7.13;;;15.40;99.90;;;;;;4783722;30;20200;-82
2022/10/18 07:11:17;;;;;;;12.40;6.60;;;15.60;99.90;;;;;;4771761;30;21174;-83
2022/10/18 07:13:45;;;;;;;16.13;7.20;;;15.70;99.90;;;;;;4769947;30;20215;-82
2022/10/18 07:16:14;;;;;;;12.83;6.63;;;15.80;99.90;;;;;;4767730;30;20231;-81
2022/10/18 07:18:48;;;;;;;21.27;7.87;;;15.80;99.90;;;;;;4785361;30;20566;-83
2022/10/18 07:21:24;;;;;;;14.83;7.50;;;16.00;99.90;;;;;;4783137;30;20250;-82
2022/10/18 07:23:52;;;;;;;13.60;7.27;;;16.10;99.90;;;;;;4764035;30;20214;-82
2022/10/18 07:26:25;;;;;;;15.30;7.43;;;16.20;99.90;;;;;;4785350;30;20288;-76
2022/10/18 07:29:00;;;;;;;10.43;7.27;;;16.20;99.90;;;;;;4773419;30;20574;-82
2022/10/18 07:31:28;;;;;;;12.50;6.93;;;16.30;99.90;;;;;;4753174;30;20201;-77
2022/10/18 07:33:57;;;;;;;12.47;7.47;;;16.30;99.90;;;;;;4766091;29;20231;-76
2022/10/18 07:36:25;;;;;;;16.93;6.93;;;16.40;99.90;;;;;;4785182;30;20211;-81
2022/10/18 07:38:54;;;;;;;11.23;7.20;;;16.30;99.90;;;;;;4772768;30;20251;-80
2022/10/18 07:41:22;;;;;;;14.03;7.90;;;16.40;99.90;;;;;;4789505;30;20224;-81
2022/10/18 07:43:50;;;;;;;13.23;7.30;;;16.40;99.90;;;;;;4789521;30;20250;-81
2022/10/18 07:46:18;;;;;;;12.13;7.07;;;16.50;99.90;;;;;;4787978;30;20208;-80
2022/10/18 07:48:46;;;;;;;12.63;7.77;;;16.50;99.90;;;;;;4787092;29;20280;-80
2022/10/18 07:51:13;;;;;;;13.67;7.63;;;16.70;99.90;;;;;;4785320;30;20673;-79
2022/10/18 07:53:44;;;;;;;12.83;7.50;;;17.00;99.90;;;;;;4770196;30;20707;-79
2022/10/18 07:56:19;;;;;;;14.97;7.70;;;17.10;99.90;;;;;;4771163;30;20204;-85
2022/10/18 07:58:52;;;;;;;14.40;7.47;;;17.30;99.90;;;;;;4775131;30;20641;-80
2022/10/18 08:01:20;;;;;;;12.50;7.47;;;17.60;99.90;;;;;;4785907;30;20279;-82
2022/10/18 08:03:51;;;;;;;13.23;7.07;;;17.70;99.90;;;;;;4771829;30;20200;-82
2022/10/18 08:06:28;;;;;;;18.77;7.50;;;18.00;99.90;;;;;;4772620;30;20209;-82
2022/10/18 08:08:55;;;;;;;13.57;7.77;;;18.00;99.90;;;;;;4788722;29;20261;-78
2022/10/18 08:11:25;;;;;;;15.53;7.57;;;18.20;99.90;;;;;;4771586;30;20220;-86
2022/10/18 08:13:53;;;;;;;14.10;7.63;;;18.40;99.90;;;;;;4787407;29;20208;-82
2022/10/18 08:16:27;;;;;;;12.90;7.83;;;18.70;99.90;;;;;;4787390;30;20212;-82
2022/10/18 08:18:57;;;;;;;12.70;7.90;;;18.90;99.90;;;;;;4788703;30;20199;-83
2022/10/18 08:21:26;;;;;;;11.03;7.40;;;18.80;99.90;;;;;;4772576;30;20246;-81
2022/10/18 08:23:54;;;;;;;18.70;8.60;;;19.00;99.90;;;;;;4757521;30;20207;-81
2022/10/18 08:26:27;;;;;;;13.17;7.93;;;19.30;99.90;;;;;;4788144;29;20204;-82
2022/10/18 08:28:53;;;;;;;14.03;9.43;;;19.10;99.90;;;;;;4772680;30;20247;-76
2022/10/18 08:31:40;;;;;;;13.10;7.83;;;19.00;99.90;;;;;;4788551;30;20200;-82
2022/10/18 08:34:07;;;;;;;15.83;8.63;;;19.00;99.90;;;;;;4768126;30;20212;-83
2022/10/18 08:36:34;;;;;;;14.70;9.00;;;18.70;99.90;;;;;;4761547;30;20212;-82
2022/10/18 08:39:12;;;;;;;13.27;8.23;;;18.50;99.90;;;;;;4770419;30;20611;-87
2022/10/18 08:41:55;;;;;;;13.83;8.33;;;18.50;99.90;;;;;;4778967;30;20215;-84
2022/10/18 08:44:26;;;;;;;17.47;8.63;;;18.60;99.90;;;;;;4772240;30;20208;-83
2022/10/18 08:47:10;;;;;;;14.17;8.77;;;18.60;99.90;;;;;;4786627;29;20635;-76
2022/10/18 08:49:49;;;;;;;15.10;8.77;;;18.80;99.90;;;;;;4764847;30;20216;-83
2022/10/18 08:52:35;;;;;;;16.13;9.33;;;18.60;99.90;;;;;;4777421;30;20283;-85
2022/10/18 08:55:38;;;;;;;13.33;8.33;;;18.40;99.90;;;;;;4770860;30;20285;-90
2022/10/18 08:58:19;;;;;;;14.77;9.00;;;18.50;99.90;;;;;;4782815;29;20196;-83
2022/10/18 09:00:52;;;;;;;13.77;9.00;;;18.80;99.90;;;;;;4786646;30;20200;-88
2022/10/18 09:03:36;;;;;;;14.67;8.90;;;19.20;99.90;;;;;;4770161;30;20205;-88
2022/10/18 09:06:10;;;;;;;13.13;8.40;;;19.30;99.90;;;;;;4786057;30;20287;-85
2022/10/18 09:09:05;;;;;;;17.53;9.40;;;19.40;99.90;;;;;;4780689;30;20654;-88
2022/10/18 09:11:40;;;;;;;19.10;9.60;;;19.80;99.90;;;;;;4783181;29;20240;-87
2022/10/18 09:14:45;;;;;;;15.67;9.87;;;20.10;99.90;;;;;;4783750;30;20262;-88
2022/10/18 09:17:21;;;;;;;21.00;11.13;;;20.60;99.90;;;;;;4754473;30;20197;-79
2022/10/18 09:20:06;;;;;;;17.67;10.07;;;20.60;99.90;;;;;;4770318;30;20196;-80
2022/10/18 09:22:59;;;;;;;18.43;9.87;;;20.40;99.90;;;;;;4781039;30;20211;-82
2022/10/18 09:25:54;;;;;;;15.83;9.70;;;20.80;99.90;;;;;;4760580;29;20204;-76
2022/10/18 09:28:32;;;;;;;18.10;10.10;;;21.00;99.90;;;;;;4764611;30;20211;-84
2022/10/18 09:31:41;;;;;;;16.03;10.40;;;21.00;99.90;;;;;;4764279;30;20196;-82
2022/10/18 09:34:32;;;;;;;16.63;10.50;;;21.80;99.90;;;;;;4721424;30;20215;-77
2022/10/18 09:36:59;;;;;;;16.43;10.13;;;22.20;99.90;;;;;;4701551;30;20340;-89
2022/10/18 09:39:36;;;;;;;17.00;10.70;;;22.30;99.90;;;;;;4716423;30;20211;-83
2022/10/18 09:42:25;;;;;;;19.50;10.70;;;22.40;99.90;;;;;;4716430;30;20230;-86
2022/10/18 09:45:37;;;;;;;17.23;10.17;;;22.50;99.90;;;;;;4717797;30;20211;-91
2022/10/18 09:49:02;;;;;;;15.33;9.87;;;22.50;99.90;;;;;;4680783;30;20211;-76
2022/10/18 09:54:44;;;;;;;17.03;10.50;;;22.80;99.90;;;;;;4761648;30;20224;-80
2022/10/18 09:57:21;;;;;;;16.63;10.43;;;22.90;99.90;;;;;;4752283;30;20201;-78
2022/10/18 09:59:50;;;;;;;17.23;10.87;;;22.80;99.90;;;;;;4761403;24;20241;-77
2022/10/18 10:02:25;;;;;;;18.77;11.47;;;22.90;99.90;;;;;;4752441;30;20213;-78
2022/10/18 10:04:55;;;;;;;15.53;11.20;;;22.70;99.90;;;;;;4768302;30;20211;-76
2022/10/18 10:07:30;;;;;;;18.37;10.93;;;22.60;99.90;;;;;;4753519;30;20197;-81
2022/10/18 10:10:52;;;;;;;18.20;11.30;;;22.30;99.90;;;;;;4744921;30;20225;-78
2022/10/18 10:13:27;;;;;;;17.90;10.70;;;22.20;99.90;;;;;;4768178;30;20220;-76
2022/10/18 10:16:04;;;;;;;19.00;11.07;;;22.40;99.90;;;;;;4774980;30;20324;-80
2022/10/18 10:18:37;;;;;;;20.30;11.90;;;22.70;99.90;;;;;;4762332;30;20212;-90
2022/10/18 10:21:14;;;;;;;17.93;11.33;;;22.50;99.90;;;;;;4766624;30;20270;-85
2022/10/18 10:24:21;;;;;;;17.93;11.00;;;23.00;99.90;;;;;;4768015;30;20240;-87
2022/10/18 10:27:04;;;;;;;16.13;11.50;;;23.60;99.90;;;;;;4720590;30;20234;-89
2022/10/18 10:29:46;;;;;;;18.40;11.40;;;23.30;99.90;;;;;;4735214;30;20225;-85
2022/10/18 10:32:16;;;;;;;20.63;11.90;;;23.60;99.90;;;;;;4734253;30;20411;-84
2022/10/18 10:34:46;;;;;;;17.00;11.13;;;23.60;99.90;;;;;;4720098;30;20234;-92
2022/10/18 10:37:22;;;;;;;20.25;12.18;;;24.60;99.90;;;;;;4735295;30;20214;-91
2022/10/18 10:40:30;;;;;;;21.52;12.40;;;24.60;99.90;;;;;;4720798;30;20194;-86
2022/10/18 10:43:21;;;;;;;23.93;12.43;;;24.20;99.90;;;;;;4697543;30;20667;-87
2022/10/18 10:46:12;;;;;;;29.70;12.60;;;24.70;99.90;;;;;;4724602;30;20236;-85
2022/10/18 10:48:49;;;;;;;20.48;11.23;;;25.30;99.90;;;;;;4721614;30;20572;-93
2022/10/18 10:51:33;;;;;;;22.00;12.70;;;26.00;99.90;;;;;;4719535;30;20206;-88
2022/10/18 10:54:20;;;;;;;19.73;12.30;;;25.80;99.90;;;;;;4663609;30;20217;-87
2022/10/18 10:57:48;;;;;;;18.70;12.32;;;25.70;99.90;;;;;;4718102;24;20240;-91
2022/10/18 11:00:46;;;;;;;18.90;11.98;;;25.30;99.90;;;;;;4787236;24;20210;-86
2022/10/18 11:03:17;;;;;;;17.73;11.65;;;25.20;99.90;;;;;;4738921;30;20214;-88
2022/10/18 11:07:01;;;;;;;20.13;11.38;;;25.50;99.90;;;;;;4746767;30;20244;-89
2022/10/18 11:10:04;;;;;;;;;;;;;;;;;;;;;
2022/10/18 11:13:01;;;;;;;17.88;11.00;;;27.30;99.90;;;;;;4652831;30;20264;-84
2022/10/18 11:16:28;;;;;;;16.65;11.23;;;27.80;99.90;;;;;;4676946;30;20255;-82
2022/10/18 11:23:00;;;;;;;19.27;12.18;;;27.00;99.90;;;;;;4640427;30;20679;-81
2022/10/18 11:26:20;;;;;;;20.92;12.25;;;25.90;99.90;;;;;;4663592;30;20213;-90
2022/10/18 11:29:12;;;;;;;21.13;12.02;;;25.50;99.90;;;;;;4651189;30;20224;-84
2022/10/18 11:32:23;;;;;;;19.45;12.07;;;26.10;99.90;;;;;;4703245;24;20260;-93
2022/10/18 11:38:06;;;;;;;19.20;12.27;;;27.30;99.90;;;;;;4761664;24;20251;-89
2022/10/18 11:40:49;;;;;;;16.67;10.85;;;27.50;99.90;;;;;;4770007;30;20227;-85
2022/10/18 11:43:26;;;;;;;20.80;11.70;;;27.10;99.90;;;;;;4785971;29;20204;-88
2022/10/18 11:46:18;;;;;;;17.88;11.57;;;26.50;99.90;;;;;;4786729;30;20204;-83
2022/10/18 11:49:20;;;;;;;17.73;11.73;;;26.80;99.90;;;;;;4789956;24;20227;-90
2022/10/18 11:51:58;;;;;;;17.73;11.93;;;26.20;99.90;;;;;;4782808;29;20282;-87
2022/10/18 11:54:46;;;;;;;22.65;12.40;;;25.20;99.90;;;;;;4780404;29;20258;-88
2022/10/18 12:00:49;;;;;;;20.05;11.05;;;23.80;99.90;;;;;;4806608;29;20589;-82
2022/10/18 12:03:22;;;;;;;20.42;11.40;;;24.30;99.90;;;;;;4798104;29;20196;-86
2022/10/18 12:05:51;;;;;;;23.48;12.65;;;25.20;99.90;;;;;;4779746;29;20204;-82
2022/10/18 12:08:29;;;;;;;20.38;11.95;;;25.50;99.90;;;;;;4786941;29;20651;-82
2022/10/18 12:11:00;;;;;;;20.33;12.18;;;25.90;99.90;;;;;;4782519;30;20216;-83
2022/10/18 12:13:36;;;;;;;17.40;11.63;;;25.70;99.90;;;;;;4782329;29;20235;-84
2022/10/18 12:16:07;;;;;;;21.52;12.50;;;25.80;99.90;;;;;;4776192;29;20235;-87
2022/10/18 12:19:17;;;;;;;27.80;12.05;;;25.80;99.90;;;;;;4789167;29;20715;-92
2022/10/18 12:25:17;;;;;;;19.38;11.50;;;26.00;99.90;;;;;;4814866;24;20697;-87
2022/10/18 12:28:12;;;;;;;20.48;11.73;;;25.90;99.90;;;;;;4806773;29;20219;-89
2022/10/18 12:30:57;;;;;;;18.75;12.07;;;25.70;99.90;;;;;;4791783;29;20208;-87
2022/10/18 12:33:28;;;;;;;21.80;12.27;;;26.10;99.90;;;;;;4791622;29;20204;-96
2022/10/18 12:36:19;;;;;;;20.80;11.90;;;26.30;99.90;;;;;;4799313;29;20222;-88
2022/10/18 12:38:50;;;;;;;18.77;11.80;;;26.20;99.90;;;;;;4783386;29;20216;-83
2022/10/18 12:41:24;;;;;;;19.38;12.68;;;26.10;99.90;;;;;;4800004;29;20220;-89
2022/10/18 12:43:55;;;;;;;22.65;12.77;;;25.40;99.90;;;;;;4781584;29;20213;-95
2022/10/18 12:46:47;;;;;;;19.73;12.40;;;24.50;99.90;;;;;;4791474;29;20195;-92
2022/10/18 12:49:33;;;;;;;19.60;13.38;;;24.20;99.90;;;;;;4784271;30;20215;-88
2022/10/18 12:52:20;;;;;;;24.33;14.05;;;23.30;99.90;;;;;;4777248;29;20292;-85
2022/10/18 12:55:13;;;;;;;19.35;12.80;;;23.20;99.90;;;;;;4785113;29;20229;-85
2022/10/18 12:58:06;;;;;;;25.70;13.32;;;23.60;99.90;;;;;;4785848;29;20200;-96
2022/10/18 13:00:54;;;;;;;20.02;12.55;;;23.20;99.90;;;;;;4773121;29;20211;-86
2022/10/18 13:04:23;;;;;;;22.83;13.67;;;23.20;99.90;;;;;;4661534;30;20263;-96
2022/10/18 13:06:56;;;;;;;22.27;12.77;;;23.00;99.90;;;;;;4701357;24;20290;-92
2022/10/18 13:10:11;;;;;;;19.27;12.67;;;22.60;99.90;;;;;;4774906;30;20196;-92
2022/10/18 13:13:10;;;;;;;20.93;13.03;;;22.40;99.90;;;;;;4783437;29;20224;-89
2022/10/18 13:16:03;;;;;;;18.73;12.33;;;22.40;99.90;;;;;;4776908;30;20243;-96
2022/10/18 13:18:57;;;;;;;19.53;12.30;;;22.20;99.90;;;;;;4783214;29;20643;-76
2022/10/18 13:21:55;;;;;;;20.00;12.23;;;21.90;99.90;;;;;;4801498;24;20228;-90
2022/10/18 13:24:49;;;;;;;19.43;12.53;;;22.00;99.90;;;;;;4787187;29;20204;-83
2022/10/18 13:27:25;;;;;;;24.10;12.63;;;21.60;99.90;;;;;;4799933;29;20207;-84
2022/10/18 13:30:36;;;;;;;23.23;13.27;;;21.60;99.90;;;;;;4782725;29;20203;-83
2022/10/18 13:33:33;;;;;;;20.33;12.73;;;21.50;99.90;;;;;;4755470;30;20219;-90